createdAt,value
2023-05-12T00:00:58.990Z,389.00
2023-05-12T00:01:59.014Z,391.00
2023-05-12T00:02:59.116Z,392.00
2023-05-12T00:03:59.284Z,394.00
2023-05-12T00:04:59.103Z,392.00
2023-05-12T00:05:59.093Z,391.00
2023-05-12T00:06:59.104Z,389.00
2023-05-12T00:07:59.118Z,389.00
2023-05-12T00:08:59.155Z,388.00
2023-05-12T00:09:59.142Z,388.00
2023-05-12T00:10:59.182Z,388.00
2023-05-12T00:11:59.168Z,390.00
2023-05-12T00:12:59.210Z,393.00
2023-05-12T00:13:59.360Z,392.00
2023-05-12T00:14:59.224Z,391.00
2023-05-12T00:15:59.547Z,391.00
2023-05-12T00:16:59.251Z,391.00
2023-05-12T00:17:59.344Z,390.00
2023-05-12T00:18:59.343Z,389.00
2023-05-12T00:19:59.299Z,385.00
2023-05-12T00:20:59.364Z,385.00
2023-05-12T00:21:59.327Z,383.00
2023-05-12T00:22:59.321Z,384.00
2023-05-12T00:23:59.323Z,382.00
2023-05-12T00:24:59.329Z,382.00
2023-05-12T00:25:59.333Z,380.00
2023-05-12T00:26:59.459Z,382.00
2023-05-12T00:27:59.300Z,383.00
2023-05-12T00:28:59.309Z,381.00
2023-05-12T00:29:59.299Z,382.00
2023-05-12T00:30:59.304Z,384.00
2023-05-12T00:31:59.378Z,384.00
2023-05-12T00:32:59.317Z,384.00
2023-05-12T00:33:59.277Z,380.00
2023-05-12T00:34:59.280Z,382.00
2023-05-12T00:35:59.278Z,378.00
2023-05-12T00:36:59.280Z,378.00
2023-05-12T00:37:59.285Z,375.00
2023-05-12T00:38:59.285Z,375.00
2023-05-12T00:39:59.286Z,379.00
2023-05-12T00:40:59.297Z,380.00
2023-05-12T00:41:59.279Z,380.00
2023-05-12T00:42:59.295Z,380.00
2023-05-12T00:43:59.275Z,381.00
2023-05-12T00:44:59.301Z,382.00
2023-05-12T00:45:59.402Z,383.00
2023-05-12T00:46:59.354Z,383.00
2023-05-12T00:47:59.422Z,384.00
2023-05-12T00:48:59.385Z,381.00
2023-05-12T00:49:59.416Z,382.00
2023-05-12T00:50:59.438Z,381.00
2023-05-12T00:51:59.448Z,383.00
2023-05-12T00:52:59.488Z,382.00
2023-05-12T00:53:59.519Z,381.00
2023-05-12T00:54:59.539Z,380.00
2023-05-12T00:55:59.555Z,377.00
2023-05-12T00:56:59.557Z,377.00
2023-05-12T00:57:59.598Z,380.00
2023-05-12T00:58:59.605Z,381.00
2023-05-12T00:59:59.636Z,382.00
2023-05-12T01:00:59.694Z,381.00
2023-05-12T01:01:59.689Z,381.00
2023-05-12T01:04:18.616Z,393.00
2023-05-12T01:05:18.617Z,388.00
2023-05-12T01:06:18.633Z,384.00
2023-05-12T01:07:18.600Z,384.00
2023-05-12T01:08:18.614Z,385.00
2023-05-12T01:09:18.603Z,383.00
2023-05-12T01:10:18.964Z,384.00
2023-05-12T01:11:18.610Z,383.00
2023-05-12T01:12:18.599Z,381.00
2023-05-12T01:13:18.607Z,379.00
2023-05-12T01:14:18.590Z,380.00
2023-05-12T01:15:18.585Z,382.00
2023-05-12T01:16:18.594Z,380.00
2023-05-12T01:17:18.611Z,379.00
2023-05-12T01:18:18.589Z,380.00
2023-05-12T01:19:18.688Z,379.00
2023-05-12T01:20:18.831Z,380.00
2023-05-12T01:21:18.577Z,381.00
2023-05-12T01:22:18.571Z,383.00
2023-05-12T01:23:18.561Z,381.00
2023-05-12T01:24:18.582Z,377.00
2023-05-12T01:25:18.571Z,376.00
2023-05-12T01:26:18.576Z,376.00
2023-05-12T01:27:18.593Z,374.00
2023-05-12T01:28:18.561Z,374.00
2023-05-12T01:29:18.576Z,372.00
2023-05-12T01:30:18.706Z,371.00
2023-05-12T01:31:20.900Z,371.00
2023-05-12T01:32:18.710Z,373.00
2023-05-12T01:33:18.704Z,370.00
2023-05-12T01:34:18.761Z,372.00
2023-05-12T01:35:18.721Z,373.00
2023-05-12T01:36:18.725Z,374.00
2023-05-12T01:37:18.737Z,372.00
2023-05-12T01:38:18.758Z,372.00
2023-05-12T01:39:18.754Z,374.00
2023-05-12T01:40:18.954Z,371.00
2023-05-12T01:41:18.790Z,372.00
2023-05-12T01:42:18.802Z,372.00
2023-05-12T01:43:20.257Z,373.00
2023-05-12T01:44:18.813Z,373.00
2023-05-12T01:45:18.809Z,372.00
2023-05-12T01:46:18.841Z,373.00
2023-05-12T01:47:18.817Z,372.00
2023-05-12T01:48:18.828Z,373.00
2023-05-12T01:49:18.823Z,372.00
2023-05-12T01:50:18.939Z,371.00
2023-05-12T01:51:18.840Z,372.00
2023-05-12T01:52:18.836Z,372.00
2023-05-12T01:53:18.851Z,373.00
2023-05-12T01:54:18.849Z,374.00
2023-05-12T01:55:18.848Z,370.00
2023-05-12T01:56:18.860Z,371.00
2023-05-12T01:57:18.877Z,370.00
2023-05-12T01:58:18.884Z,372.00
2023-05-12T01:59:18.902Z,375.00
2023-05-12T02:00:19.051Z,375.00
2023-05-12T02:01:18.937Z,374.00
2023-05-12T02:02:18.888Z,374.00
2023-05-12T02:03:18.980Z,377.00
2023-05-12T02:04:18.911Z,375.00
2023-05-12T02:05:18.908Z,374.00
2023-05-12T02:06:18.939Z,372.00
2023-05-12T02:07:18.909Z,373.00
2023-05-12T02:08:18.941Z,370.00
2023-05-12T02:09:18.938Z,369.00
2023-05-12T02:10:19.145Z,365.00
2023-05-12T02:11:18.958Z,364.00
2023-05-12T02:12:18.929Z,365.00
2023-05-12T02:13:18.945Z,365.00
2023-05-12T02:14:18.936Z,365.00
2023-05-12T02:15:18.946Z,364.00
2023-05-12T02:16:18.970Z,363.00
2023-05-12T02:17:18.956Z,362.00
2023-05-12T02:18:18.986Z,363.00
2023-05-12T02:19:18.982Z,363.00
2023-05-12T02:20:19.180Z,361.00
2023-05-12T02:21:18.976Z,361.00
2023-05-12T02:22:18.970Z,360.00
2023-05-12T02:23:18.982Z,361.00
2023-05-12T02:24:18.974Z,361.00
2023-05-12T02:25:18.983Z,360.00
2023-05-12T02:26:18.981Z,361.00
2023-05-12T02:27:19.000Z,362.00
2023-05-12T02:28:18.997Z,363.00
2023-05-12T02:29:18.983Z,360.00
2023-05-12T02:30:19.195Z,360.00
2023-05-12T02:31:19.013Z,359.00
2023-05-12T02:32:18.982Z,353.00
2023-05-12T02:33:18.987Z,353.00
2023-05-12T02:34:18.989Z,354.00
2023-05-12T02:35:18.984Z,354.00
2023-05-12T02:36:18.968Z,354.00
2023-05-12T02:37:18.977Z,354.00
2023-05-12T02:38:18.988Z,353.00
2023-05-12T02:39:19.000Z,355.00
2023-05-12T02:40:19.167Z,356.00
2023-05-12T02:41:18.992Z,357.00
2023-05-12T02:42:18.976Z,356.00
2023-05-12T02:43:19.012Z,358.00
2023-05-12T02:44:18.973Z,355.00
2023-05-12T02:45:19.004Z,357.00
2023-05-12T02:46:19.110Z,356.00
2023-05-12T02:47:19.044Z,357.00
2023-05-12T02:48:19.060Z,359.00
2023-05-12T02:49:19.077Z,358.00
2023-05-12T02:50:19.268Z,358.00
2023-05-12T02:51:19.145Z,360.00
2023-05-12T02:52:19.137Z,361.00
2023-05-12T02:53:19.164Z,359.00
2023-05-12T02:54:19.171Z,359.00
2023-05-12T02:55:19.282Z,358.00
2023-05-12T02:56:19.223Z,359.00
2023-05-12T02:57:19.210Z,358.00
2023-05-12T02:58:19.210Z,360.00
2023-05-12T02:59:19.213Z,361.00
2023-05-12T03:00:19.422Z,361.00
2023-05-12T03:01:19.284Z,361.00
2023-05-12T03:02:19.225Z,361.00
2023-05-12T03:03:19.250Z,363.00
2023-05-12T03:04:19.217Z,364.00
2023-05-12T03:05:19.217Z,362.00
2023-05-12T03:06:19.263Z,359.00
2023-05-12T03:07:19.210Z,358.00
2023-05-12T03:08:19.204Z,357.00
2023-05-12T03:09:19.211Z,357.00
2023-05-12T03:10:19.566Z,358.00
2023-05-12T03:11:19.254Z,358.00
2023-05-12T03:12:19.202Z,362.00
2023-05-12T03:13:19.201Z,364.00
2023-05-12T03:14:19.207Z,365.00
2023-05-12T03:15:19.212Z,365.00
2023-05-12T03:16:19.842Z,363.00
2023-05-12T03:17:19.340Z,364.00
2023-05-12T03:18:19.234Z,361.00
2023-05-12T03:19:19.231Z,359.00
2023-05-12T03:20:19.564Z,359.00
2023-05-12T03:21:19.235Z,358.00
2023-05-12T03:22:19.293Z,360.00
2023-05-12T03:23:19.255Z,356.00
2023-05-12T03:24:19.241Z,359.00
2023-05-12T03:25:19.250Z,358.00
2023-05-12T03:26:19.274Z,360.00
2023-05-12T03:27:19.303Z,358.00
2023-05-12T03:28:19.311Z,357.00
2023-05-12T03:29:19.324Z,357.00
2023-05-12T03:30:19.489Z,359.00
2023-05-12T03:31:19.378Z,358.00
2023-05-12T03:32:19.406Z,357.00
2023-05-12T03:33:19.358Z,355.00
2023-05-12T03:34:19.352Z,356.00
2023-05-12T03:35:19.358Z,356.00
2023-05-12T03:36:19.356Z,354.00
2023-05-12T03:37:19.367Z,353.00
2023-05-12T03:38:19.501Z,355.00
2023-05-12T03:39:19.370Z,355.00
2023-05-12T03:40:19.666Z,355.00
2023-05-12T03:41:19.372Z,351.00
2023-05-12T03:42:19.402Z,353.00
2023-05-12T03:43:19.392Z,351.00
2023-05-12T03:44:19.381Z,349.00
2023-05-12T03:45:19.396Z,349.00
2023-05-12T03:46:19.468Z,349.00
2023-05-12T03:47:19.565Z,351.00
2023-05-12T03:48:19.464Z,354.00
2023-05-12T03:49:19.428Z,351.00
2023-05-12T03:50:19.807Z,349.00
2023-05-12T03:51:19.449Z,350.00
2023-05-12T03:52:19.444Z,352.00
2023-05-12T03:53:19.437Z,353.00
2023-05-12T03:54:19.456Z,354.00
2023-05-12T03:55:19.463Z,354.00
2023-05-12T03:56:19.486Z,355.00
2023-05-12T03:57:19.529Z,358.00
2023-05-12T03:58:19.530Z,359.00
2023-05-12T03:59:19.563Z,359.00
2023-05-12T04:00:19.776Z,358.00
2023-05-12T04:01:19.624Z,355.00
2023-05-12T04:02:19.709Z,357.00
2023-05-12T04:03:19.782Z,355.00
2023-05-12T04:04:19.708Z,356.00
2023-05-12T04:06:17.413Z,355.00
2023-05-12T04:07:17.362Z,362.00
2023-05-12T04:08:17.334Z,362.00
2023-05-12T04:09:17.308Z,356.00
2023-05-12T04:10:17.437Z,354.00
2023-05-12T04:11:17.273Z,351.00
2023-05-12T04:12:17.245Z,349.00
2023-05-12T04:13:17.209Z,348.00
2023-05-12T04:14:17.196Z,347.00
2023-05-12T04:15:17.178Z,346.00
2023-05-12T04:16:17.145Z,346.00
2023-05-12T04:17:17.136Z,341.00
2023-05-12T04:18:17.093Z,341.00
2023-05-12T04:19:17.070Z,339.00
2023-05-12T04:20:17.037Z,340.00
2023-05-12T04:21:17.075Z,342.00
2023-05-12T04:22:16.990Z,346.00
2023-05-12T04:23:16.977Z,347.00
2023-05-12T04:24:16.996Z,347.00
2023-05-12T04:25:16.915Z,344.00
2023-05-12T04:26:16.894Z,343.00
2023-05-12T04:27:16.876Z,341.00
2023-05-12T04:28:16.836Z,341.00
2023-05-12T04:29:16.814Z,339.00
2023-05-12T04:30:16.786Z,340.00
2023-05-12T04:31:16.760Z,341.00
2023-05-12T04:32:16.764Z,342.00
2023-05-12T04:33:16.695Z,342.00
2023-05-12T04:34:16.677Z,344.00
2023-05-12T04:35:16.653Z,346.00
2023-05-12T04:36:16.618Z,347.00
2023-05-12T04:37:16.604Z,349.00
2023-05-12T04:38:16.587Z,348.00
2023-05-12T04:39:16.545Z,347.00
2023-05-12T04:40:16.526Z,345.00
2023-05-12T04:41:16.514Z,345.00
2023-05-12T04:42:16.562Z,344.00
2023-05-12T04:44:16.541Z,342.00
2023-05-12T04:45:16.512Z,342.00
2023-05-12T04:46:16.545Z,343.00
2023-05-12T04:47:16.469Z,343.00
2023-05-12T04:48:16.433Z,344.00
2023-05-12T04:49:16.409Z,345.00
2023-05-12T04:50:16.378Z,343.00
2023-05-12T04:51:16.406Z,346.00
2023-05-12T04:52:16.342Z,347.00
2023-05-12T04:53:16.304Z,347.00
2023-05-12T04:54:16.298Z,345.00
2023-05-12T04:55:16.269Z,342.00
2023-05-12T04:56:16.217Z,343.00
2023-05-12T04:57:16.208Z,343.00
2023-05-12T04:58:16.170Z,342.00
2023-05-12T04:59:16.201Z,344.00
2023-05-12T05:00:16.233Z,347.00
2023-05-12T05:01:16.302Z,350.00
2023-05-12T05:02:16.315Z,351.00
2023-05-12T05:03:16.391Z,351.00
2023-05-12T05:04:16.270Z,353.00
2023-05-12T05:05:16.247Z,352.00
2023-05-12T05:06:16.201Z,351.00
2023-05-12T05:07:16.192Z,351.00
2023-05-12T05:08:16.158Z,352.00
2023-05-12T05:09:16.143Z,352.00
2023-05-12T05:10:16.129Z,348.00
2023-05-12T05:11:16.099Z,349.00
2023-05-12T05:12:16.080Z,349.00
2023-05-12T05:13:16.035Z,348.00
2023-05-12T05:14:16.017Z,348.00
2023-05-12T05:15:15.988Z,347.00
2023-05-12T05:16:16.035Z,349.00
2023-05-12T05:17:15.946Z,348.00
2023-05-12T05:18:15.925Z,348.00
2023-05-12T05:19:22.833Z,349.00
2023-05-12T05:20:15.924Z,349.00
2023-05-12T05:21:15.863Z,351.00
2023-05-12T05:22:15.812Z,350.00
2023-05-12T05:23:15.774Z,349.00
2023-05-12T05:24:15.775Z,350.00
2023-05-12T05:25:15.733Z,350.00
2023-05-12T05:26:15.689Z,350.00
2023-05-12T05:27:15.676Z,349.00
2023-05-12T05:28:15.658Z,352.00
2023-05-12T05:29:15.667Z,352.00
2023-05-12T05:30:15.612Z,350.00
2023-05-12T05:31:15.635Z,350.00
2023-05-12T05:32:15.536Z,353.00
2023-05-12T05:33:15.504Z,354.00
2023-05-12T05:34:15.541Z,352.00
2023-05-12T05:35:15.447Z,349.00
2023-05-12T05:36:15.421Z,351.00
2023-05-12T05:37:15.483Z,351.00
2023-05-12T05:38:15.373Z,353.00
2023-05-12T05:39:15.350Z,354.00
2023-05-12T05:40:15.358Z,408.00
2023-05-12T05:41:15.342Z,464.00
2023-05-12T05:42:15.369Z,449.00
2023-05-12T05:43:15.421Z,451.00
2023-05-12T05:44:15.353Z,481.00
2023-05-12T05:45:15.424Z,570.00
2023-05-12T05:46:15.380Z,573.00
2023-05-12T05:47:15.463Z,582.00
2023-05-12T05:48:15.476Z,623.00
2023-05-12T05:49:15.469Z,654.00
2023-05-12T05:50:15.409Z,677.00
2023-05-12T05:51:15.596Z,701.00
2023-05-12T05:52:15.434Z,706.00
2023-05-12T05:53:15.623Z,714.00
2023-05-12T05:54:15.449Z,754.00
2023-05-12T05:55:15.444Z,739.00
2023-05-12T05:56:15.422Z,732.00
2023-05-12T05:57:15.470Z,751.00
2023-05-12T05:58:15.415Z,766.00
2023-05-12T05:59:15.419Z,781.00
2023-05-12T06:00:15.418Z,827.00
2023-05-12T06:01:15.457Z,863.00
2023-05-12T06:02:15.600Z,872.00
2023-05-12T06:03:15.429Z,869.00
2023-05-12T06:04:15.293Z,871.00
2023-05-12T06:05:15.293Z,890.00
2023-05-12T06:06:15.218Z,910.00
2023-05-12T06:07:15.183Z,930.00
2023-05-12T06:08:15.620Z,940.00
2023-05-12T06:09:15.084Z,950.00
2023-05-12T06:10:15.058Z,957.00
2023-05-12T06:11:15.951Z,988.00
2023-05-12T06:12:15.380Z,999.00
2023-05-12T06:13:15.407Z,1020.00
2023-05-12T06:14:15.205Z,1012.00
2023-05-12T06:15:15.172Z,1021.00
2023-05-12T06:16:16.127Z,1052.00
2023-05-12T06:17:15.110Z,1065.00
2023-05-12T06:18:15.111Z,1076.00
2023-05-12T06:19:15.230Z,1088.00
2023-05-12T06:20:16.020Z,1103.00
2023-05-12T06:21:15.097Z,1114.00
2023-05-12T06:22:15.130Z,1156.00
2023-05-12T06:23:15.048Z,1166.00
2023-05-12T06:24:15.022Z,1166.00
2023-05-12T06:25:15.399Z,1167.00
2023-05-12T06:26:14.960Z,1177.00
2023-05-12T06:27:15.015Z,1183.00
2023-05-12T06:28:14.924Z,1194.00
2023-05-12T06:29:14.885Z,1207.00
2023-05-12T06:30:16.177Z,1224.00
2023-05-12T06:31:14.823Z,1247.00
2023-05-12T06:32:14.978Z,1272.00
2023-05-12T06:33:15.131Z,1291.00
2023-05-12T06:34:14.920Z,1301.00
2023-05-12T06:35:14.733Z,1297.00
2023-05-12T06:36:14.668Z,1299.00
2023-05-12T06:37:14.618Z,1319.00
2023-05-12T06:38:14.596Z,1331.00
2023-05-12T06:39:14.535Z,1339.00
2023-05-12T06:40:14.503Z,1344.00
2023-05-12T06:41:14.471Z,1391.00
2023-05-12T06:42:14.431Z,1403.00
2023-05-12T06:43:14.545Z,1405.00
2023-05-12T06:44:14.550Z,1398.00
2023-05-12T06:45:14.397Z,1384.00
2023-05-12T06:46:14.346Z,1375.00
2023-05-12T06:47:14.298Z,1365.00
2023-05-12T06:48:14.206Z,1357.00
2023-05-12T06:49:14.182Z,1349.00
2023-05-12T06:50:14.289Z,1335.00
2023-05-12T06:51:14.110Z,1316.00
2023-05-12T06:52:14.099Z,1276.00
2023-05-12T06:53:14.049Z,1263.00
2023-05-12T06:54:14.003Z,1262.00
2023-05-12T06:55:13.979Z,1251.00
2023-05-12T06:56:13.943Z,1249.00
2023-05-12T06:57:13.910Z,1240.00
2023-05-12T06:58:14.049Z,1108.00
2023-05-12T06:59:13.850Z,1024.00
2023-05-12T07:00:13.842Z,993.00
2023-05-12T07:01:13.850Z,991.00
2023-05-12T07:02:13.743Z,996.00
2023-05-12T07:03:13.816Z,1002.00
2023-05-12T07:04:13.718Z,1004.00
2023-05-12T07:05:13.655Z,999.00
2023-05-12T07:06:13.700Z,993.00
2023-05-12T07:07:13.578Z,984.00
2023-05-12T07:08:13.550Z,978.00
2023-05-12T07:09:13.496Z,975.00
2023-05-12T07:10:13.461Z,972.00
2023-05-12T07:11:13.417Z,967.00
2023-05-12T07:12:13.393Z,963.00
2023-05-12T07:13:13.353Z,959.00
2023-05-12T07:14:13.322Z,954.00
2023-05-12T07:15:13.302Z,943.00
2023-05-12T07:16:13.279Z,937.00
2023-05-12T07:17:13.221Z,927.00
2023-05-12T07:18:13.248Z,920.00
2023-05-12T07:19:13.258Z,910.00
2023-05-12T07:20:13.134Z,900.00
2023-05-12T07:21:13.096Z,895.00
2023-05-12T07:22:13.717Z,890.00
2023-05-12T07:23:13.031Z,888.00
2023-05-12T07:24:13.105Z,882.00
2023-05-12T07:25:13.011Z,871.00
2023-05-12T07:26:12.961Z,864.00
2023-05-12T07:27:12.937Z,856.00
2023-05-12T07:28:12.902Z,850.00
2023-05-12T07:29:14.026Z,842.00
2023-05-12T07:30:12.853Z,838.00
2023-05-12T07:31:12.841Z,832.00
2023-05-12T07:32:12.771Z,830.00
2023-05-12T07:33:12.766Z,824.00
2023-05-12T07:34:12.706Z,819.00
2023-05-12T07:35:12.684Z,814.00
2023-05-12T07:36:12.656Z,809.00
2023-05-12T07:37:12.682Z,854.00
2023-05-12T07:38:12.604Z,863.00
2023-05-12T07:39:12.542Z,846.00
2023-05-12T07:40:12.553Z,856.00
2023-05-12T07:41:12.478Z,907.00
2023-05-12T07:42:12.445Z,956.00
2023-05-12T07:43:12.440Z,998.00
2023-05-12T07:44:20.912Z,1017.00
2023-05-12T07:45:12.601Z,1045.00
2023-05-12T07:46:12.584Z,1055.00
2023-05-12T07:47:12.602Z,1059.00
2023-05-12T07:48:12.618Z,1069.00
2023-05-12T07:49:12.564Z,1088.00
2023-05-12T07:50:12.641Z,1098.00
2023-05-12T07:51:12.469Z,1123.00
2023-05-12T07:52:12.422Z,1167.00
2023-05-12T07:53:12.405Z,1190.00
2023-05-12T07:54:12.483Z,1187.00
2023-05-12T07:55:12.506Z,1168.00
2023-05-12T07:56:12.493Z,1155.00
2023-05-12T07:57:12.510Z,1160.00
2023-05-12T07:58:12.506Z,1170.00
2023-05-12T07:59:12.549Z,1167.00
2023-05-12T08:00:12.575Z,1166.00
2023-05-12T08:01:12.613Z,1169.00
2023-05-12T08:02:12.710Z,1182.00
2023-05-12T08:03:12.754Z,1216.00
2023-05-12T08:04:12.649Z,1224.00
2023-05-12T08:05:12.518Z,1219.00
2023-05-12T08:06:12.518Z,1217.00
2023-05-12T08:07:13.442Z,1228.00
2023-05-12T08:08:12.453Z,1244.00
2023-05-12T08:09:12.411Z,1262.00
2023-05-12T08:10:12.480Z,1261.00
2023-05-12T08:11:12.386Z,1270.00
2023-05-12T08:12:12.292Z,1284.00
2023-05-12T08:13:12.281Z,1290.00
2023-05-12T08:14:12.368Z,1284.00
2023-05-12T08:15:12.183Z,1287.00
2023-05-12T08:16:12.672Z,1287.00
2023-05-12T08:17:12.724Z,1285.00
2023-05-12T08:18:12.295Z,1290.00
2023-05-12T08:19:12.235Z,1302.00
2023-05-12T08:20:12.673Z,1314.00
2023-05-12T08:21:12.143Z,1337.00
2023-05-12T08:22:12.143Z,1344.00
2023-05-12T08:23:12.200Z,1342.00
2023-05-12T08:24:12.680Z,1337.00
2023-05-12T08:25:12.832Z,1232.00
2023-05-12T08:26:12.729Z,1205.00
2023-05-12T08:27:12.179Z,1208.00
2023-05-12T08:28:12.668Z,1257.00
2023-05-12T08:29:12.299Z,1150.00
2023-05-12T08:30:12.188Z,1185.00
2023-05-12T08:31:12.315Z,1061.00
2023-05-12T08:32:12.225Z,1152.00
2023-05-12T08:33:12.277Z,1074.00
2023-05-12T08:34:12.282Z,1059.00
2023-05-12T08:35:12.285Z,1051.00
2023-05-12T08:36:12.329Z,984.00
2023-05-12T08:37:12.358Z,964.00
2023-05-12T08:38:12.396Z,940.00
2023-05-12T08:39:12.431Z,917.00
2023-05-12T08:40:12.465Z,903.00
2023-05-12T08:41:12.567Z,831.00
2023-05-12T08:42:12.524Z,748.00
2023-05-12T08:43:12.605Z,717.00
2023-05-12T08:44:12.627Z,675.00
2023-05-12T08:45:13.240Z,636.00
2023-05-12T08:46:12.685Z,716.00
2023-05-12T08:47:12.649Z,745.00
2023-05-12T08:48:12.690Z,847.00
2023-05-12T08:49:12.750Z,860.00
2023-05-12T08:50:12.936Z,863.00
2023-05-12T08:51:12.787Z,939.00
2023-05-12T08:52:12.789Z,958.00
2023-05-12T08:53:12.828Z,959.00
2023-05-12T08:54:12.835Z,971.00
2023-05-12T08:55:12.904Z,986.00
2023-05-12T08:57:12.879Z,1006.00
2023-05-12T08:58:12.839Z,1025.00
2023-05-12T08:59:12.767Z,1035.00
2023-05-12T09:00:12.741Z,1049.00
2023-05-12T09:01:12.806Z,1063.00
2023-05-12T09:02:12.752Z,1096.00
2023-05-12T09:03:12.658Z,1096.00
2023-05-12T09:04:12.617Z,1108.00
2023-05-12T09:05:12.603Z,1123.00
2023-05-12T09:06:12.563Z,1146.00
2023-05-12T09:07:12.476Z,1156.00
2023-05-12T09:08:12.449Z,1171.00
2023-05-12T09:09:12.440Z,1194.00
2023-05-12T09:10:22.532Z,1208.00
2023-05-12T09:11:13.342Z,1216.00
2023-05-12T09:12:12.311Z,1228.00
2023-05-12T09:13:12.247Z,1257.00
2023-05-12T09:14:12.265Z,1260.00
2023-05-12T09:15:12.287Z,1257.00
2023-05-12T09:16:12.255Z,1265.00
2023-05-12T09:17:12.145Z,1272.00
2023-05-12T09:18:12.114Z,1279.00
2023-05-12T09:19:12.163Z,1281.00
2023-05-12T09:20:23.879Z,1288.00
2023-05-12T09:21:12.954Z,1297.00
2023-05-12T09:22:11.947Z,1303.00
2023-05-12T09:23:11.883Z,1324.00
2023-05-12T09:24:12.709Z,1333.00
2023-05-12T09:25:13.433Z,1346.00
2023-05-12T09:26:11.922Z,1358.00
2023-05-12T09:27:11.964Z,1372.00
2023-05-12T09:28:11.829Z,1385.00
2023-05-12T09:29:15.745Z,1390.00
2023-05-12T09:30:12.648Z,1398.00
2023-05-12T09:31:13.364Z,1401.00
2023-05-12T09:32:11.644Z,1405.00
2023-05-12T09:33:11.586Z,1405.00
2023-05-12T09:34:11.463Z,1410.00
2023-05-12T09:35:11.466Z,1414.00
2023-05-12T09:36:11.406Z,1419.00
2023-05-12T09:37:12.705Z,1422.00
2023-05-12T09:38:12.230Z,1424.00
2023-05-12T09:39:11.446Z,1434.00
2023-05-12T09:40:11.526Z,1442.00
2023-05-12T09:41:11.425Z,1454.00
2023-05-12T09:42:12.313Z,1506.00
2023-05-12T09:43:13.631Z,1526.00
2023-05-12T09:44:11.388Z,1542.00
2023-05-12T09:45:11.345Z,1538.00
2023-05-12T09:46:11.340Z,1521.00
2023-05-12T09:47:11.213Z,1519.00
2023-05-12T09:48:11.183Z,1511.00
2023-05-12T09:49:11.848Z,1504.00
2023-05-12T09:50:11.119Z,1513.00
2023-05-12T09:51:11.098Z,1534.00
2023-05-12T09:52:12.868Z,1540.00
2023-05-12T09:53:11.120Z,1539.00
2023-05-12T09:54:11.065Z,1537.00
2023-05-12T09:55:10.949Z,1534.00
2023-05-12T09:56:10.984Z,1531.00
2023-05-12T09:57:10.857Z,1531.00
2023-05-12T09:58:10.865Z,1541.00
2023-05-12T09:59:11.246Z,1548.00
2023-05-12T10:00:21.123Z,1569.00
2023-05-12T10:01:22.815Z,1586.00
2023-05-12T10:02:11.664Z,1603.00
2023-05-12T10:03:10.639Z,1610.00
2023-05-12T10:04:10.597Z,1615.00
2023-05-12T10:05:10.629Z,1647.00
2023-05-12T10:06:10.460Z,1642.00
2023-05-12T10:07:10.427Z,1668.00
2023-05-12T10:08:10.386Z,1678.00
2023-05-12T10:09:10.599Z,1681.00
2023-05-12T10:10:10.328Z,1690.00
2023-05-12T10:11:11.201Z,1703.00
2023-05-12T10:12:10.286Z,1716.00
2023-05-12T10:13:10.168Z,1731.00
2023-05-12T10:14:10.128Z,1737.00
2023-05-12T10:15:10.066Z,1739.00
2023-05-12T10:16:10.012Z,1745.00
2023-05-12T10:17:10.073Z,1755.00
2023-05-12T10:18:10.911Z,1762.00
2023-05-12T10:19:10.017Z,1773.00
2023-05-12T10:20:09.830Z,1775.00
2023-05-12T10:21:09.802Z,1778.00
2023-05-12T10:22:09.770Z,1808.00
2023-05-12T10:23:09.713Z,1806.00
2023-05-12T10:24:09.640Z,1813.00
2023-05-12T10:25:09.632Z,1817.00
2023-05-12T10:26:09.540Z,1818.00
2023-05-12T10:27:09.612Z,1822.00
2023-05-12T10:28:09.469Z,1827.00
2023-05-12T10:29:09.440Z,1833.00
2023-05-12T10:30:09.420Z,1837.00
2023-05-12T10:31:09.398Z,1845.00
2023-05-12T10:32:09.279Z,1859.00
2023-05-12T10:33:09.265Z,1869.00
2023-05-12T10:34:09.375Z,1875.00
2023-05-12T10:35:09.272Z,1888.00
2023-05-12T10:36:09.116Z,1890.00
2023-05-12T10:37:09.170Z,1885.00
2023-05-12T10:38:09.048Z,1895.00
2023-05-12T10:39:08.975Z,1908.00
2023-05-12T10:40:08.926Z,1900.00
2023-05-12T10:41:08.895Z,1821.00
2023-05-12T10:42:08.825Z,1818.00
2023-05-12T10:43:08.795Z,1808.00
2023-05-12T10:44:08.863Z,1653.00
2023-05-12T10:45:08.864Z,1558.00
2023-05-12T10:46:08.892Z,1513.00
2023-05-12T10:47:09.417Z,1497.00
2023-05-12T10:48:08.870Z,1487.00
2023-05-12T10:49:08.847Z,1502.00
2023-05-12T10:50:09.772Z,1503.00
2023-05-12T10:51:08.740Z,1500.00
2023-05-12T10:52:11.384Z,1501.00
2023-05-12T10:53:10.520Z,1501.00
2023-05-12T10:54:08.719Z,1510.00
2023-05-12T10:55:08.603Z,1518.00
2023-05-12T10:56:08.774Z,1543.00
2023-05-12T10:57:08.747Z,1559.00
2023-05-12T10:58:08.788Z,1564.00
2023-05-12T10:59:08.542Z,1584.00
2023-05-12T11:00:08.665Z,1600.00
2023-05-12T11:01:09.118Z,1610.00
2023-05-12T11:02:09.195Z,1616.00
2023-05-12T11:03:10.478Z,1645.00
2023-05-12T11:04:09.862Z,1661.00
2023-05-12T11:05:08.507Z,1665.00
2023-05-12T11:06:08.693Z,1668.00
2023-05-12T11:07:08.457Z,1666.00
2023-05-12T11:08:09.512Z,1669.00
2023-05-12T11:09:08.986Z,1676.00
2023-05-12T11:10:08.384Z,1679.00
2023-05-12T11:11:08.820Z,1683.00
2023-05-12T11:12:08.897Z,1696.00
2023-05-12T11:13:07.851Z,1705.00
2023-05-12T11:14:07.817Z,1713.00
2023-05-12T11:15:07.783Z,1718.00
2023-05-12T11:16:07.790Z,1724.00
2023-05-12T11:17:07.751Z,1726.00
2023-05-12T11:18:08.265Z,1733.00
2023-05-12T11:19:07.794Z,1749.00
2023-05-12T11:20:07.791Z,1765.00
2023-05-12T11:21:07.736Z,1778.00
2023-05-12T11:22:07.764Z,1788.00
2023-05-12T11:23:07.762Z,1792.00
2023-05-12T11:24:07.797Z,1794.00
2023-05-12T11:25:07.868Z,1836.00
2023-05-12T11:26:07.835Z,1829.00
2023-05-12T11:27:07.940Z,1833.00
2023-05-12T11:28:08.009Z,1879.00
2023-05-12T11:29:07.945Z,1870.00
2023-05-12T11:30:07.920Z,1870.00
2023-05-12T11:31:08.014Z,1875.00
2023-05-12T11:32:08.051Z,1858.00
2023-05-12T11:33:08.054Z,1732.00
2023-05-12T11:34:13.234Z,1704.00
2023-05-12T11:35:11.747Z,1716.00
2023-05-12T11:36:08.064Z,1671.00
2023-05-12T11:37:07.929Z,1564.00
2023-05-12T11:38:07.931Z,1435.00
2023-05-12T11:39:07.908Z,1247.00
2023-05-12T11:40:07.830Z,1288.00
2023-05-12T11:41:08.729Z,1309.00
2023-05-12T11:42:13.079Z,1310.00
2023-05-12T11:43:08.724Z,1301.00
2023-05-12T11:44:07.808Z,1288.00
2023-05-12T11:45:07.715Z,1290.00
2023-05-12T11:46:07.879Z,1288.00
2023-05-12T11:47:07.587Z,1285.00
2023-05-12T11:48:07.755Z,1281.00
2023-05-12T11:49:07.589Z,1281.00
2023-05-12T11:50:07.553Z,1280.00
2023-05-12T11:51:07.489Z,1279.00
2023-05-12T11:52:07.453Z,1280.00
2023-05-12T11:53:07.447Z,1278.00
2023-05-12T11:54:07.410Z,1274.00
2023-05-12T11:55:07.385Z,1275.00
2023-05-12T11:56:07.318Z,1275.00
2023-05-12T11:57:07.291Z,1271.00
2023-05-12T11:58:07.240Z,1266.00
2023-05-12T11:59:07.218Z,1259.00
2023-05-12T12:00:07.197Z,1250.00
2023-05-12T12:01:07.168Z,1243.00
2023-05-12T12:02:07.140Z,1235.00
2023-05-12T12:03:07.227Z,1230.00
2023-05-12T12:04:07.264Z,1223.00
2023-05-12T12:05:17.421Z,1214.00
2023-05-12T12:06:07.984Z,1209.00
2023-05-12T12:07:06.926Z,1201.00
2023-05-12T12:08:06.898Z,1196.00
2023-05-12T12:09:06.898Z,1198.00
2023-05-12T12:10:06.845Z,1198.00
2023-05-12T12:11:06.878Z,1195.00
2023-05-12T12:12:06.746Z,1192.00
2023-05-12T12:13:06.709Z,1186.00
2023-05-12T12:14:06.662Z,1179.00
2023-05-12T12:15:06.654Z,1172.00
2023-05-12T12:16:06.578Z,1168.00
2023-05-12T12:17:06.565Z,1163.00
2023-05-12T12:18:06.565Z,1157.00
2023-05-12T12:19:06.532Z,1154.00
2023-05-12T12:20:06.468Z,1149.00
2023-05-12T12:21:06.398Z,1142.00
2023-05-12T12:22:06.357Z,1142.00
2023-05-12T12:23:06.319Z,1139.00